Time;durP1;ratioP1;P1;durP2;ratioP2;P2;SDS_P1;SDS_P2;PMS_P1;PMS_P2;Temp;Humidity;BMP_temperature;BMP_pressure;BME280_temperature;BME280_humidity;BME280_pressure;Samples;Min_cycle;Max_cycle;Signal;HPM_P1;HPM_P2
2021/10/12 00:01:41;;;;;;;11.68;5.40;;;8.80;99.90;;;;;;5029078;28;20057;-84
2021/10/12 00:04:07;;;;;;;9.77;4.88;;;8.80;99.90;;;;;;5018468;28;20128;-84
2021/10/12 00:06:33;;;;;;;10.95;5.35;;;8.70;99.90;;;;;;5034787;28;20083;-84
2021/10/12 00:08:59;;;;;;;10.88;5.20;;;8.70;99.90;;;;;;5035084;28;20025;-83
2021/10/12 00:11:25;;;;;;;7.97;4.55;;;8.60;99.90;;;;;;5031812;28;20032;-83
2021/10/12 00:13:50;;;;;;;10.13;5.63;;;8.70;99.90;;;;;;5032941;28;20029;-83
2021/10/12 00:16:16;;;;;;;10.18;5.18;;;8.60;99.90;;;;;;5027853;28;20405;-82
2021/10/12 00:18:42;;;;;;;12.20;5.90;;;8.60;99.90;;;;;;5033485;28;20374;-83
2021/10/12 00:21:07;;;;;;;10.70;5.15;;;8.60;99.90;;;;;;5033152;28;20094;-84
2021/10/12 00:23:33;;;;;;;11.68;5.43;;;8.60;99.90;;;;;;5022776;28;20028;-83
2021/10/12 00:25:59;;;;;;;11.73;5.55;;;8.60;99.90;;;;;;5030309;28;20049;-84
2021/10/12 00:28:25;;;;;;;9.63;5.03;;;8.60;99.90;;;;;;5031774;28;20114;-83
2021/10/12 00:30:51;;;;;;;10.48;5.35;;;8.60;99.90;;;;;;5038490;28;20056;-84
2021/10/12 00:33:17;;;;;;;11.27;5.38;;;8.60;99.90;;;;;;5028125;28;20063;-84
2021/10/12 00:35:43;;;;;;;10.20;5.47;;;8.60;99.90;;;;;;5033365;28;20033;-83
2021/10/12 00:38:08;;;;;;;13.70;5.70;;;8.60;99.90;;;;;;5036691;28;20021;-84
2021/10/12 00:40:37;;;;;;;11.73;6.38;;;8.60;99.90;;;;;;5035687;28;20116;-84
2021/10/12 00:43:03;;;;;;;10.60;5.30;;;8.50;99.90;;;;;;5039033;28;20509;-84
2021/10/12 00:45:29;;;;;;;11.52;5.93;;;8.50;99.90;;;;;;5024969;28;20108;-84
2021/10/12 00:47:59;;;;;;;10.80;5.30;;;8.50;99.90;;;;;;5038084;28;20057;-84
2021/10/12 00:50:27;;;;;;;11.07;5.78;;;8.50;99.90;;;;;;5039213;28;20025;-84
2021/10/12 00:52:53;;;;;;;7.80;4.47;;;8.50;99.90;;;;;;5031210;28;20053;-84
2021/10/12 00:55:18;;;;;;;13.20;5.57;;;8.50;99.90;;;;;;5035978;28;20037;-84
2021/10/12 00:57:44;;;;;;;12.18;5.72;;;8.50;99.90;;;;;;5053827;28;20136;-83
2021/10/12 01:00:10;;;;;;;11.18;5.40;;;8.40;99.90;;;;;;5053902;28;20013;-83
2021/10/12 01:02:37;;;;;;;11.27;5.85;;;8.50;99.90;;;;;;5040597;28;20014;-83
2021/10/12 01:05:06;;;;;;;11.50;6.15;;;8.50;99.90;;;;;;5055674;28;20159;-83
2021/10/12 01:07:32;;;;;;;10.15;5.00;;;8.50;99.90;;;;;;5054686;28;20006;-84
2021/10/12 01:09:58;;;;;;;10.70;4.95;;;8.50;99.90;;;;;;5035595;28;20108;-82
2021/10/12 01:12:23;;;;;;;12.57;5.80;;;8.50;99.90;;;;;;5042360;28;20040;-82
2021/10/12 01:14:49;;;;;;;10.77;4.82;;;8.50;99.90;;;;;;5034907;28;20112;-82
2021/10/12 01:17:15;;;;;;;9.70;5.15;;;8.50;99.90;;;;;;5037565;28;20084;-82
2021/10/12 01:19:40;;;;;;;9.57;5.45;;;8.50;99.90;;;;;;5037574;28;20026;-82
2021/10/12 01:22:06;;;;;;;10.93;5.55;;;8.50;99.90;;;;;;5038528;28;20029;-82
2021/10/12 01:24:32;;;;;;;12.68;5.53;;;8.50;99.90;;;;;;5035417;28;20022;-82
2021/10/12 01:26:58;;;;;;;10.85;5.45;;;8.50;99.90;;;;;;5051278;28;20026;-82
2021/10/12 01:29:23;;;;;;;13.40;5.75;;;8.50;99.90;;;;;;5037652;28;20021;-82
2021/10/12 01:31:49;;;;;;;13.00;5.90;;;8.40;99.90;;;;;;5032203;28;20068;-82
2021/10/12 01:34:19;;;;;;;12.23;5.55;;;8.50;99.90;;;;;;5020553;28;20479;-82
2021/10/12 01:36:46;;;;;;;14.93;6.57;;;8.50;99.90;;;;;;5036700;28;20100;-82
2021/10/12 01:39:12;;;;;;;11.57;5.50;;;8.50;99.90;;;;;;5035142;28;20116;-83
2021/10/12 01:41:38;;;;;;;15.07;6.18;;;8.40;99.90;;;;;;5035830;28;20032;-82
2021/10/12 01:44:04;;;;;;;9.90;5.45;;;8.40;99.90;;;;;;5039161;28;20460;-81
2021/10/12 01:46:30;;;;;;;12.57;6.18;;;8.40;99.90;;;;;;5030245;28;20513;-82
2021/10/12 01:48:55;;;;;;;12.45;6.15;;;8.40;99.90;;;;;;5036868;28;20417;-82
2021/10/12 01:51:21;;;;;;;13.13;6.07;;;8.40;99.90;;;;;;5035641;28;20032;-81
2021/10/12 01:53:47;;;;;;;14.75;5.95;;;8.40;99.90;;;;;;5030273;28;20467;-82
2021/10/12 01:56:12;;;;;;;15.82;6.22;;;8.40;99.90;;;;;;5028949;28;20018;-82
2021/10/12 01:58:38;;;;;;;13.10;5.85;;;8.40;99.90;;;;;;5035271;28;20037;-82
2021/10/12 02:01:05;;;;;;;11.55;5.50;;;8.30;99.90;;;;;;5035739;28;20034;-82
2021/10/12 02:03:30;;;;;;;12.50;6.32;;;8.30;99.90;;;;;;5031300;28;20037;-82
2021/10/12 02:05:56;;;;;;;15.32;6.28;;;8.30;99.90;;;;;;5017165;28;20034;-82
2021/10/12 02:08:22;;;;;;;14.80;6.15;;;8.40;99.90;;;;;;5032681;28;20030;-82
2021/10/12 02:10:47;;;;;;;11.93;5.70;;;8.40;99.90;;;;;;5016881;28;20049;-82
2021/10/12 02:13:13;;;;;;;12.45;6.35;;;8.40;99.90;;;;;;5032383;28;20052;-82
2021/10/12 02:15:39;;;;;;;15.32;5.80;;;8.40;99.90;;;;;;5033112;28;20140;-82
2021/10/12 02:18:04;;;;;;;13.77;6.78;;;8.40;99.90;;;;;;5018520;28;20046;-82
2021/10/12 02:20:30;;;;;;;11.77;6.13;;;8.40;99.90;;;;;;5032452;28;20026;-82
2021/10/12 02:22:56;;;;;;;11.15;5.20;;;8.40;99.90;;;;;;5017845;28;20438;-82
2021/10/12 02:25:21;;;;;;;13.23;6.50;;;8.40;99.90;;;;;;5016293;28;20482;-82
2021/10/12 02:27:47;;;;;;;15.93;6.75;;;8.40;99.90;;;;;;5017842;28;20033;-83
2021/10/12 02:30:12;;;;;;;11.18;5.75;;;8.50;99.90;;;;;;5016745;28;20114;-82
2021/10/12 02:32:38;;;;;;;15.95;7.22;;;8.50;99.90;;;;;;5016051;28;20026;-82
2021/10/12 02:35:05;;;;;;;12.82;6.38;;;8.50;99.90;;;;;;5017617;28;20022;-81
2021/10/12 02:37:31;;;;;;;13.52;6.80;;;8.50;99.90;;;;;;5017866;28;20017;-83
2021/10/12 02:39:57;;;;;;;14.20;6.78;;;8.50;99.90;;;;;;5016630;28;20441;-81
2021/10/12 02:42:22;;;;;;;13.43;7.18;;;8.50;99.90;;;;;;5014070;28;20021;-82
2021/10/12 02:44:48;;;;;;;10.68;5.97;;;8.50;99.90;;;;;;5016416;28;20021;-82
2021/10/12 02:47:13;;;;;;;12.25;6.22;;;8.50;99.90;;;;;;5030037;28;20409;-82
2021/10/12 02:49:39;;;;;;;12.18;6.43;;;8.50;99.90;;;;;;5037072;28;20101;-82
2021/10/12 02:52:05;;;;;;;13.63;6.10;;;8.60;99.90;;;;;;5019247;28;20109;-82
2021/10/12 02:54:31;;;;;;;11.65;6.07;;;8.50;99.90;;;;;;5017726;28;20698;-82
2021/10/12 02:56:56;;;;;;;12.02;5.60;;;8.50;99.90;;;;;;5018214;28;20161;-82
2021/10/12 02:59:22;;;;;;;9.88;5.20;;;8.50;99.90;;;;;;5041207;28;20049;-82
2021/10/12 03:01:48;;;;;;;13.20;5.85;;;8.40;99.90;;;;;;5034555;28;20474;-82
2021/10/12 03:04:14;;;;;;;12.05;6.03;;;8.40;99.90;;;;;;5036947;28;20064;-83
2021/10/12 03:06:40;;;;;;;11.05;5.18;;;8.40;99.90;;;;;;5036104;28;20029;-83
2021/10/12 03:09:06;;;;;;;12.65;6.13;;;8.40;99.90;;;;;;5021817;28;20044;-82
2021/10/12 03:11:32;;;;;;;13.23;5.93;;;8.40;99.90;;;;;;5016503;28;20022;-82
2021/10/12 03:13:57;;;;;;;12.75;5.97;;;8.40;99.90;;;;;;5016146;28;20345;-82
2021/10/12 03:16:23;;;;;;;11.70;5.43;;;8.30;99.90;;;;;;5037860;23;20937;-79
2021/10/12 03:18:49;;;;;;;11.60;5.75;;;8.40;99.90;;;;;;5032416;28;20517;-78
2021/10/12 03:21:15;;;;;;;13.52;5.97;;;8.30;99.90;;;;;;5031335;28;20022;-78
2021/10/12 03:23:41;;;;;;;9.70;5.05;;;8.40;99.90;;;;;;5031298;28;20029;-77
2021/10/12 03:26:06;;;;;;;12.07;6.25;;;8.30;99.90;;;;;;5030070;28;20065;-77
2021/10/12 03:28:32;;;;;;;14.80;6.00;;;8.40;99.90;;;;;;5029274;28;20065;-77
2021/10/12 03:30:58;;;;;;;9.63;5.25;;;8.40;99.90;;;;;;5030408;28;20116;-77
2021/10/12 03:33:23;;;;;;;10.10;5.72;;;8.40;99.90;;;;;;5032774;28;20025;-78
2021/10/12 03:36:00;;;;;;;12.80;6.28;;;8.40;99.90;;;;;;5031464;28;20092;-77
2021/10/12 03:38:28;;;;;;;13.23;5.88;;;8.40;99.90;;;;;;5028409;28;20087;-77
2021/10/12 03:40:54;;;;;;;10.88;6.25;;;8.40;99.90;;;;;;5027205;28;20029;-77
2021/10/12 03:43:21;;;;;;;12.45;5.72;;;8.40;99.90;;;;;;5032259;28;20079;-77
2021/10/12 03:45:47;;;;;;;14.18;6.18;;;8.40;99.90;;;;;;5031821;28;20431;-77
2021/10/12 03:48:13;;;;;;;12.82;6.15;;;8.30;99.90;;;;;;5032005;28;20036;-77
2021/10/12 03:50:38;;;;;;;11.45;5.38;;;8.30;99.90;;;;;;5025458;28;20034;-77
2021/10/12 03:53:04;;;;;;;12.80;5.03;;;8.30;99.90;;;;;;5028887;28;20489;-77
2021/10/12 03:55:30;;;;;;;11.68;5.75;;;8.30;99.90;;;;;;5033261;28;20401;-77
2021/10/12 03:57:56;;;;;;;11.50;6.35;;;8.30;99.90;;;;;;5032704;28;20134;-77
2021/10/12 04:00:22;;;;;;;12.68;5.78;;;8.30;99.90;;;;;;5027246;28;20034;-77
2021/10/12 04:02:47;;;;;;;9.30;5.13;;;8.30;99.90;;;;;;5011047;28;20030;-77
2021/10/12 04:05:13;;;;;;;10.77;4.95;;;8.30;99.90;;;;;;5012283;28;20037;-77
2021/10/12 04:07:39;;;;;;;12.40;5.68;;;8.30;99.90;;;;;;5010806;28;20053;-78
2021/10/12 04:10:05;;;;;;;12.65;6.05;;;8.30;99.90;;;;;;5026873;28;20355;-77
2021/10/12 04:12:30;;;;;;;11.07;6.00;;;8.30;99.90;;;;;;5031475;28;20037;-77
2021/10/12 04:14:56;;;;;;;9.93;5.50;;;8.40;99.90;;;;;;5029671;28;20030;-77
2021/10/12 04:17:22;;;;;;;8.93;4.50;;;8.40;99.90;;;;;;5039522;28;20409;-77
2021/10/12 04:19:47;;;;;;;8.43;4.68;;;8.40;99.90;;;;;;5030956;28;20060;-77
2021/10/12 04:22:13;;;;;;;10.73;5.13;;;8.40;99.90;;;;;;5028621;28;20101;-77
2021/10/12 04:24:39;;;;;;;11.25;5.38;;;8.40;99.90;;;;;;5030575;28;20025;-77
2021/10/12 04:27:05;;;;;;;12.68;5.38;;;8.40;99.90;;;;;;5030308;28;20026;-77
2021/10/12 04:29:31;;;;;;;10.27;4.65;;;8.50;99.90;;;;;;5031632;28;20025;-77
2021/10/12 04:32:00;;;;;;;12.60;4.65;;;8.50;99.90;;;;;;5031281;28;20045;-77
2021/10/12 04:34:27;;;;;;;9.52;3.97;;;8.50;99.90;;;;;;5030216;28;20056;-78
2021/10/12 04:36:53;;;;;;;10.48;4.57;;;8.50;99.90;;;;;;5032224;28;20486;-78
2021/10/12 04:39:19;;;;;;;9.82;5.00;;;8.50;99.90;;;;;;5032763;28;20370;-77
2021/10/12 04:41:45;;;;;;;10.23;4.70;;;8.50;99.90;;;;;;5035576;28;20032;-78
2021/10/12 04:44:11;;;;;;;8.65;4.38;;;8.50;99.90;;;;;;5035363;28;20033;-79
2021/10/12 04:46:40;;;;;;;9.73;4.90;;;8.50;99.90;;;;;;5036886;28;20034;-78
2021/10/12 04:49:06;;;;;;;9.68;5.30;;;8.50;99.90;;;;;;5031439;28;20025;-78
2021/10/12 04:51:32;;;;;;;10.35;4.80;;;8.50;99.90;;;;;;5034745;28;20116;-78
2021/10/12 04:53:58;;;;;;;10.00;5.05;;;8.50;99.90;;;;;;5030600;28;20021;-78
2021/10/12 04:56:24;;;;;;;11.77;5.88;;;8.50;99.90;;;;;;5028200;28;20505;-78
2021/10/12 04:58:49;;;;;;;12.50;5.47;;;8.50;99.90;;;;;;5026571;28;20030;-78
2021/10/12 05:01:15;;;;;;;8.32;4.68;;;8.50;99.90;;;;;;5035172;28;20030;-78
2021/10/12 05:03:40;;;;;;;9.23;5.07;;;8.50;99.90;;;;;;5031841;28;20104;-78
2021/10/12 05:06:06;;;;;;;9.98;4.95;;;8.50;99.90;;;;;;5035422;28;20037;-78
2021/10/12 05:08:32;;;;;;;10.80;4.38;;;8.50;99.90;;;;;;5033134;28;20022;-78
2021/10/12 05:10:57;;;;;;;9.07;3.88;;;8.50;99.90;;;;;;5039753;28;20155;-79
2021/10/12 05:13:23;;;;;;;8.75;4.13;;;8.50;99.90;;;;;;5036899;28;20025;-78
2021/10/12 05:15:49;;;;;;;7.25;4.18;;;8.50;99.90;;;;;;5031703;28;20056;-78
2021/10/12 05:18:21;;;;;;;9.57;5.00;;;8.50;99.90;;;;;;5035627;28;20040;-78
2021/10/12 05:20:46;;;;;;;10.27;4.15;;;8.50;99.90;;;;;;5036512;28;20026;-78
2021/10/12 05:23:13;;;;;;;9.02;4.53;;;8.50;99.90;;;;;;5038208;28;20419;-78
2021/10/12 05:25:39;;;;;;;10.52;4.60;;;8.50;99.90;;;;;;5037340;28;20029;-78
2021/10/12 05:28:05;;;;;;;8.38;3.97;;;8.60;99.90;;;;;;5039040;28;20053;-78
2021/10/12 05:30:34;;;;;;;7.22;3.83;;;8.50;99.90;;;;;;5042287;28;20025;-78
2021/10/12 05:32:59;;;;;;;9.73;4.65;;;8.50;99.90;;;;;;5036878;28;20025;-78
2021/10/12 05:35:25;;;;;;;7.85;3.83;;;8.50;99.90;;;;;;5040037;28;20044;-78
2021/10/12 05:37:50;;;;;;;8.77;3.40;;;8.60;99.90;;;;;;5045068;28;20083;-78
2021/10/12 05:40:16;;;;;;;8.52;4.00;;;8.60;99.90;;;;;;5054661;28;20025;-78
2021/10/12 05:42:42;;;;;;;8.10;4.03;;;8.60;99.90;;;;;;5058280;28;20398;-78
2021/10/12 05:45:08;;;;;;;9.45;3.60;;;8.60;99.90;;;;;;5024453;28;20379;-78
2021/10/12 05:47:33;;;;;;;8.50;3.33;;;8.60;99.90;;;;;;5018145;28;20034;-78
2021/10/12 05:49:59;;;;;;;9.70;3.95;;;8.50;99.90;;;;;;5016907;28;20029;-78
2021/10/12 05:52:25;;;;;;;10.38;3.97;;;8.60;99.90;;;;;;5018738;28;20026;-78
2021/10/12 05:55:12;;;;;;;6.50;3.70;;;8.60;99.90;;;;;;5019121;28;20498;-78
2021/10/12 05:57:42;;;;;;;12.45;4.00;;;8.60;99.90;;;;;;5018377;28;20018;-78
2021/10/12 06:00:09;;;;;;;10.45;3.83;;;8.60;99.90;;;;;;5036605;28;20358;-78
2021/10/12 06:02:34;;;;;;;8.77;3.80;;;8.60;99.90;;;;;;5048744;28;20123;-78
2021/10/12 06:05:00;;;;;;;8.57;3.97;;;8.60;99.90;;;;;;5039110;28;20056;-78
2021/10/12 06:07:25;;;;;;;6.45;3.55;;;8.60;99.90;;;;;;5030481;28;20030;-78
2021/10/12 06:09:51;;;;;;;8.38;3.60;;;8.60;99.90;;;;;;5035553;28;20165;-78
2021/10/12 06:12:17;;;;;;;6.97;3.75;;;8.60;99.90;;;;;;5036702;28;20021;-78
2021/10/12 06:14:43;;;;;;;10.65;3.78;;;8.60;99.90;;;;;;5034784;28;20095;-78
2021/10/12 06:17:09;;;;;;;6.95;3.40;;;8.60;99.90;;;;;;5034140;28;20036;-78
2021/10/12 06:19:35;;;;;;;7.53;3.58;;;8.60;99.90;;;;;;5036158;28;20029;-78
2021/10/12 06:22:01;;;;;;;8.05;3.55;;;8.70;99.90;;;;;;5031976;28;20065;-78
2021/10/12 06:24:26;;;;;;;7.43;3.53;;;8.70;99.90;;;;;;5034153;28;20025;-78
2021/10/12 06:26:52;;;;;;;7.38;3.92;;;8.70;99.90;;;;;;5035676;28;20510;-78
2021/10/12 06:29:17;;;;;;;9.40;4.25;;;8.70;99.90;;;;;;5044368;28;20398;-78
2021/10/12 06:31:43;;;;;;;7.88;3.95;;;8.70;99.90;;;;;;5054414;28;20477;-78
2021/10/12 06:34:08;;;;;;;11.93;4.18;;;8.80;99.90;;;;;;5039349;28;20099;-78
2021/10/12 06:36:35;;;;;;;8.13;3.83;;;8.70;99.90;;;;;;5018363;28;20022;-78
2021/10/12 06:39:01;;;;;;;9.88;4.18;;;8.70;99.90;;;;;;5017232;28;20030;-78
2021/10/12 06:41:27;;;;;;;8.95;3.60;;;8.70;99.90;;;;;;5013330;28;20110;-78
2021/10/12 06:43:52;;;;;;;7.72;3.72;;;8.70;99.90;;;;;;5017340;28;20068;-78
2021/10/12 06:46:18;;;;;;;8.55;3.50;;;8.70;99.90;;;;;;5016659;28;20033;-78
2021/10/12 06:48:43;;;;;;;7.70;4.13;;;8.70;99.90;;;;;;5035293;28;20025;-78
2021/10/12 06:51:09;;;;;;;10.75;4.03;;;8.70;99.90;;;;;;5038292;28;20038;-78
2021/10/12 06:53:34;;;;;;;7.72;4.05;;;8.60;99.90;;;;;;5039282;28;20104;-85
2021/10/12 06:56:00;;;;;;;10.07;4.00;;;8.70;99.90;;;;;;5032003;28;20025;-85
2021/10/12 06:58:26;;;;;;;8.00;3.75;;;8.60;99.90;;;;;;5031652;28;20037;-84
2021/10/12 07:00:51;;;;;;;9.07;4.55;;;8.70;99.90;;;;;;5030664;28;20042;-85
2021/10/12 07:03:17;;;;;;;5.57;3.17;;;8.70;99.90;;;;;;5020010;28;20104;-84
2021/10/12 07:05:42;;;;;;;7.95;3.45;;;8.70;99.90;;;;;;5031321;28;20037;-84
2021/10/12 07:08:08;;;;;;;7.20;3.85;;;8.70;99.90;;;;;;5032892;28;20421;-84
2021/10/12 07:10:33;;;;;;;8.43;4.25;;;8.80;99.90;;;;;;5025592;28;20089;-82
2021/10/12 07:12:59;;;;;;;6.90;3.47;;;8.80;99.90;;;;;;5025526;28;20041;-82
2021/10/12 07:15:25;;;;;;;8.82;4.25;;;8.80;99.90;;;;;;5036851;28;20033;-82
2021/10/12 07:17:50;;;;;;;7.15;3.28;;;8.80;99.90;;;;;;5051029;28;20493;-81
2021/10/12 07:20:17;;;;;;;8.32;3.47;;;8.90;99.90;;;;;;5032197;28;20041;-82
2021/10/12 07:22:43;;;;;;;6.50;3.20;;;8.90;99.90;;;;;;5037011;28;20025;-81
2021/10/12 07:25:09;;;;;;;7.38;4.10;;;8.90;99.90;;;;;;5032575;28;20135;-82
2021/10/12 07:27:36;;;;;;;9.05;3.90;;;9.00;99.90;;;;;;5033684;28;20059;-82
2021/10/12 07:30:04;;;;;;;8.52;4.15;;;8.90;99.90;;;;;;5031652;28;20026;-81
2021/10/12 07:32:31;;;;;;;8.57;3.50;;;9.00;99.90;;;;;;5027217;28;20430;-81
2021/10/12 07:35:00;;;;;;;8.15;3.90;;;9.00;99.90;;;;;;5029515;28;20478;-82
2021/10/12 07:37:27;;;;;;;9.60;3.55;;;9.00;99.90;;;;;;5032603;28;20128;-82
2021/10/12 07:39:54;;;;;;;8.85;3.83;;;9.00;99.90;;;;;;5010544;28;20030;-81
2021/10/12 07:42:20;;;;;;;7.28;3.63;;;9.00;99.90;;;;;;5030425;28;20065;-82
2021/10/12 07:44:47;;;;;;;6.10;3.20;;;9.00;99.90;;;;;;5031506;28;20041;-82
2021/10/12 07:47:13;;;;;;;7.03;3.08;;;9.00;99.90;;;;;;5034787;28;20041;-81
2021/10/12 07:49:39;;;;;;;8.18;3.05;;;9.00;99.90;;;;;;5032285;28;20037;-82
2021/10/12 07:52:07;;;;;;;5.90;2.78;;;9.00;99.90;;;;;;5032367;28;20512;-82
2021/10/12 07:54:42;;;;;;;6.55;3.40;;;9.00;99.90;;;;;;5033880;28;20037;-81
2021/10/12 07:57:08;;;;;;;6.47;3.13;;;9.00;99.90;;;;;;5033802;28;20363;-82
2021/10/12 07:59:34;;;;;;;6.70;3.47;;;8.90;99.90;;;;;;5031086;28;20044;-82
2021/10/12 08:01:59;;;;;;;5.88;3.10;;;8.90;99.90;;;;;;5032465;28;20043;-82
2021/10/12 08:04:25;;;;;;;6.45;3.20;;;9.00;99.90;;;;;;5032099;28;20026;-82
2021/10/12 08:06:51;;;;;;;7.82;3.35;;;8.90;99.90;;;;;;5032294;28;20038;-81
2021/10/12 08:09:16;;;;;;;5.78;2.70;;;9.00;99.90;;;;;;5029585;28;20038;-83
2021/10/12 08:11:42;;;;;;;6.20;2.80;;;9.10;99.90;;;;;;5029696;28;20030;-83
2021/10/12 08:14:10;;;;;;;8.82;2.60;;;9.10;99.90;;;;;;5025733;28;20052;-83
2021/10/12 08:16:36;;;;;;;9.65;3.63;;;9.00;99.90;;;;;;5034976;28;20033;-81
2021/10/12 08:19:05;;;;;;;8.38;3.42;;;9.10;99.90;;;;;;5031159;28;20029;-82
2021/10/12 08:21:31;;;;;;;6.70;3.20;;;9.10;99.90;;;;;;5032015;28;20022;-81
2021/10/12 08:23:59;;;;;;;8.65;3.28;;;9.10;99.90;;;;;;5029154;28;20064;-82
2021/10/12 08:26:25;;;;;;;6.20;2.25;;;9.10;99.90;;;;;;5028877;28;20025;-82
2021/10/12 08:28:52;;;;;;;7.85;2.83;;;9.10;99.90;;;;;;5031669;28;20158;-82
2021/10/12 08:31:19;;;;;;;7.15;2.90;;;9.20;99.90;;;;;;5032069;28;20098;-82
2021/10/12 08:33:46;;;;;;;6.50;2.97;;;9.20;99.90;;;;;;5027139;28;20029;-82
2021/10/12 08:36:12;;;;;;;6.45;3.03;;;9.30;99.90;;;;;;5012197;28;20053;-82
2021/10/12 08:38:39;;;;;;;6.45;2.97;;;9.40;99.90;;;;;;5011826;28;20034;-81
2021/10/12 08:41:05;;;;;;;6.60;2.85;;;9.50;99.90;;;;;;5009643;28;20029;-81
2021/10/12 08:43:33;;;;;;;7.70;3.35;;;9.60;99.90;;;;;;5032864;28;20036;-81
2021/10/12 08:45:59;;;;;;;7.47;2.53;;;9.70;99.90;;;;;;5043673;28;20040;-82
2021/10/12 08:48:27;;;;;;;5.80;2.60;;;9.60;99.90;;;;;;5030804;28;20614;-82
2021/10/12 08:50:55;;;;;;;5.72;2.70;;;9.70;99.90;;;;;;5030620;28;20068;-81
2021/10/12 08:53:21;;;;;;;6.88;2.78;;;9.70;99.90;;;;;;5016707;28;20025;-80
2021/10/12 08:55:47;;;;;;;5.35;2.53;;;9.70;99.90;;;;;;5011706;28;20170;-80
2021/10/12 08:58:12;;;;;;;6.75;2.40;;;9.80;99.90;;;;;;5011200;28;20034;-80
2021/10/12 09:00:38;;;;;;;6.15;2.25;;;9.90;99.90;;;;;;5029603;28;20389;-80
2021/10/12 09:05:50;;;;;;;4.20;1.90;;;9.90;99.90;;;;;;5032866;28;20025;-83
2021/10/12 09:08:35;;;;;;;5.53;2.47;;;9.90;99.90;;;;;;5024980;28;20048;-83
2021/10/12 09:11:03;;;;;;;3.90;1.95;;;9.90;99.90;;;;;;5041984;28;20025;-84
2021/10/12 09:13:41;;;;;;;4.90;2.38;;;9.90;99.90;;;;;;5035234;28;20023;-83
2021/10/12 09:16:10;;;;;;;4.85;2.35;;;9.80;99.90;;;;;;5034458;28;20041;-84
2021/10/12 09:18:58;;;;;;;3.60;1.90;;;9.80;99.90;;;;;;5032969;28;20392;-84
2021/10/12 09:21:30;;;;;;;4.18;2.10;;;9.80;99.90;;;;;;5026152;28;20031;-83
2021/10/12 09:24:08;;;;;;;5.97;2.53;;;9.90;99.90;;;;;;5034002;28;20053;-84
2021/10/12 09:26:59;;;;;;;4.75;2.03;;;9.90;99.90;;;;;;5029597;28;20033;-84
2021/10/12 09:29:30;;;;;;;4.82;2.30;;;10.00;99.90;;;;;;5020018;28;20061;-84
2021/10/12 09:31:57;;;;;;;4.97;2.47;;;10.00;99.90;;;;;;5028612;28;20025;-83
2021/10/12 09:34:24;;;;;;;4.07;2.13;;;10.10;99.90;;;;;;5043875;28;20021;-84
2021/10/12 09:36:52;;;;;;;5.93;2.20;;;10.20;99.90;;;;;;5027967;28;20101;-84
2021/10/12 09:39:27;;;;;;;6.32;2.55;;;10.30;99.90;;;;;;5032849;28;20037;-84
2021/10/12 09:42:04;;;;;;;6.15;2.85;;;10.20;99.90;;;;;;5020515;28;20363;-83
2021/10/12 09:44:30;;;;;;;7.55;2.92;;;10.00;99.90;;;;;;5031320;28;20600;-83
2021/10/12 09:47:10;;;;;;;7.40;3.10;;;10.00;99.90;;;;;;5019015;28;20026;-83
2021/10/12 09:49:36;;;;;;;7.78;2.78;;;10.00;99.90;;;;;;5010077;28;20107;-83
2021/10/12 09:52:01;;;;;;;5.95;2.65;;;10.00;99.90;;;;;;5032137;28;20029;-83
2021/10/12 09:54:41;;;;;;;5.70;2.47;;;10.00;99.90;;;;;;5029055;28;20048;-83
2021/10/12 09:57:09;;;;;;;4.82;3.03;;;10.00;99.90;;;;;;5034632;28;20385;-81
2021/10/12 09:59:35;;;;;;;8.35;2.80;;;10.10;99.90;;;;;;5034096;28;20116;-81
2021/10/12 10:02:01;;;;;;;8.05;2.70;;;10.10;99.90;;;;;;5030998;28;20117;-82
2021/10/12 10:04:29;;;;;;;5.72;2.95;;;10.00;99.90;;;;;;5037432;28;20017;-82
2021/10/12 10:07:08;;;;;;;6.60;2.85;;;10.10;99.90;;;;;;5030745;28;20130;-82
2021/10/12 10:09:35;;;;;;;3.78;2.10;;;10.20;99.90;;;;;;5030979;28;20075;-82
2021/10/12 10:12:01;;;;;;;4.80;2.35;;;10.30;99.90;;;;;;5031968;28;20060;-81
2021/10/12 10:14:27;;;;;;;3.97;2.17;;;10.30;99.90;;;;;;5033325;28;20075;-81
2021/10/12 10:16:57;;;;;;;9.02;2.33;;;10.40;99.90;;;;;;5036427;28;20476;-82
2021/10/12 10:19:33;;;;;;;5.97;2.30;;;10.40;99.90;;;;;;5026285;23;20423;-81
2021/10/12 10:22:00;;;;;;;5.35;2.10;;;10.40;99.90;;;;;;5024574;28;20033;-79
2021/10/12 10:24:40;;;;;;;3.85;2.03;;;10.30;99.90;;;;;;5027561;28;20032;-80
2021/10/12 10:27:07;;;;;;;4.45;2.03;;;10.20;99.90;;;;;;5024678;28;20030;-80
2021/10/12 10:29:38;;;;;;;4.45;1.98;;;10.20;99.90;;;;;;5008203;28;20041;-79
2021/10/12 10:32:22;;;;;;;5.20;2.47;;;10.20;99.90;;;;;;5036345;28;20018;-81
2021/10/12 10:35:04;;;;;;;6.20;1.95;;;10.30;99.90;;;;;;5041940;28;20370;-81
2021/10/12 10:37:31;;;;;;;5.78;1.90;;;10.30;99.90;;;;;;5040943;28;20025;-82
2021/10/12 10:40:24;;;;;;;4.00;2.08;;;10.30;99.90;;;;;;5029325;28;20053;-81
2021/10/12 10:42:51;;;;;;;6.03;2.63;;;10.40;99.90;;;;;;5036873;28;20025;-81
2021/10/12 10:45:17;;;;;;;6.07;2.22;;;10.60;99.90;;;;;;5039326;28;20041;-82
2021/10/12 10:47:52;;;;;;;7.22;2.72;;;10.70;99.90;;;;;;5038900;28;20025;-82
2021/10/12 10:50:29;;;;;;;6.85;2.30;;;10.80;99.90;;;;;;5038446;28;20030;-82
2021/10/12 10:52:55;;;;;;;6.57;2.17;;;10.90;99.90;;;;;;5048161;28;20029;-82
2021/10/12 10:55:45;;;;;;;6.07;2.22;;;11.10;99.90;;;;;;5042489;28;20034;-80
2021/10/12 10:58:21;;;;;;;4.97;1.80;;;11.40;99.90;;;;;;5028799;28;20044;-82
2021/10/12 11:00:54;;;;;;;3.72;1.73;;;11.60;99.90;;;;;;5039784;28;20029;-82
2021/10/12 11:03:28;;;;;;;7.30;2.13;;;11.80;99.90;;;;;;5027832;28;20029;-82
2021/10/12 11:05:56;;;;;;;5.82;1.77;;;11.80;99.90;;;;;;5016331;28;20041;-82
2021/10/12 11:08:24;;;;;;;3.80;1.52;;;11.90;99.90;;;;;;5018548;28;20090;-81
2021/10/12 11:10:58;;;;;;;3.75;1.27;;;11.90;99.90;;;;;;5039237;28;20037;-80
2021/10/12 11:13:32;;;;;;;4.05;1.60;;;11.90;99.90;;;;;;5038875;28;20029;-81
2021/10/12 11:15:59;;;;;;;3.38;1.58;;;11.90;99.90;;;;;;5037823;28;20032;-81
2021/10/12 11:18:24;;;;;;;4.40;1.88;;;11.80;99.90;;;;;;5039405;28;20021;-81
2021/10/12 11:20:56;;;;;;;3.03;1.13;;;11.70;99.90;;;;;;5036427;28;20048;-82
2021/10/12 11:23:24;;;;;;;3.50;1.00;;;11.60;99.90;;;;;;5038417;28;20037;-81
2021/10/12 11:26:08;;;;;;;4.25;1.20;;;11.50;99.90;;;;;;5038548;28;20021;-82
2021/10/12 11:28:39;;;;;;;2.85;1.30;;;11.40;99.90;;;;;;5035329;28;20070;-82
2021/10/12 11:31:14;;;;;;;3.55;1.30;;;11.30;99.90;;;;;;5035023;28;20014;-84
2021/10/12 11:34:00;;;;;;;3.15;1.25;;;11.20;99.90;;;;;;5027357;28;20632;-82
2021/10/12 11:36:46;;;;;;;5.40;1.60;;;11.10;99.90;;;;;;5037267;28;20151;-83
2021/10/12 11:39:11;;;;;;;5.20;1.50;;;11.10;99.90;;;;;;5038155;28;20074;-83
2021/10/12 11:41:38;;;;;;;4.30;1.63;;;11.10;99.90;;;;;;5027976;28;20107;-81
2021/10/12 11:44:20;;;;;;;3.13;1.48;;;11.00;99.90;;;;;;5041705;28;20106;-82
2021/10/12 11:46:48;;;;;;;3.53;1.90;;;11.00;99.90;;;;;;5033938;28;20029;-85
2021/10/12 11:49:15;;;;;;;4.78;2.15;;;10.80;99.90;;;;;;5034830;28;20497;-82
2021/10/12 11:51:46;;;;;;;4.35;1.95;;;10.70;99.90;;;;;;5037451;28;20021;-83
2021/10/12 11:54:13;;;;;;;6.18;2.25;;;10.60;99.90;;;;;;5037638;28;20052;-83
2021/10/12 11:56:41;;;;;;;5.43;2.30;;;10.50;99.90;;;;;;5033835;28;20077;-81
2021/10/12 11:59:11;;;;;;;7.85;2.53;;;10.50;99.90;;;;;;5032789;28;20416;-81
2021/10/12 12:01:55;;;;;;;4.50;2.13;;;10.60;99.90;;;;;;5030926;28;20044;-81
2021/10/12 12:04:34;;;;;;;3.17;1.60;;;10.70;99.90;;;;;;5035349;28;20013;-81
2021/10/12 12:07:08;;;;;;;3.95;1.65;;;10.80;99.90;;;;;;5035982;28;20030;-83
2021/10/12 12:09:38;;;;;;;7.00;2.30;;;11.20;99.90;;;;;;5036712;28;20619;-82
2021/10/12 12:12:08;;;;;;;3.55;1.50;;;11.40;99.90;;;;;;5036383;28;20018;-82
2021/10/12 12:14:35;;;;;;;4.60;1.33;;;11.80;99.90;;;;;;5034489;28;20045;-83
2021/10/12 12:17:19;;;;;;;2.78;1.40;;;11.90;99.90;;;;;;5028570;28;20040;-82
2021/10/12 12:19:49;;;;;;;2.90;1.38;;;12.10;99.90;;;;;;5034431;28;20059;-84
2021/10/12 12:22:17;;;;;;;6.18;2.03;;;12.10;99.90;;;;;;5035423;28;20029;-83
2021/10/12 12:24:53;;;;;;;3.35;1.67;;;12.20;99.90;;;;;;5039101;28;20053;-83
2021/10/12 12:27:19;;;;;;;3.38;1.50;;;12.40;99.90;;;;;;5029523;28;20048;-82
2021/10/12 12:29:55;;;;;;;2.90;1.10;;;12.40;99.90;;;;;;5037785;28;20032;-84
2021/10/12 12:32:23;;;;;;;2.63;1.23;;;12.20;99.90;;;;;;5040074;28;20071;-83
2021/10/12 12:35:06;;;;;;;4.30;1.30;;;12.40;99.90;;;;;;5037137;28;20044;-83
2021/10/12 12:37:34;;;;;;;3.25;1.23;;;12.40;99.90;;;;;;5044319;28;20018;-83
2021/10/12 12:40:00;;;;;;;4.43;1.30;;;12.70;99.90;;;;;;5042647;28;20436;-83
2021/10/12 12:42:37;;;;;;;4.43;1.42;;;12.60;99.90;;;;;;5045207;28;20037;-83
2021/10/12 12:45:12;;;;;;;3.08;1.50;;;12.60;99.90;;;;;;5043869;28;20124;-82
2021/10/12 12:47:51;;;;;;;2.42;1.08;;;12.70;99.90;;;;;;5044314;28;20033;-82
2021/10/12 12:50:27;;;;;;;4.22;1.27;;;12.70;99.90;;;;;;5047765;28;20047;-82
2021/10/12 12:52:55;;;;;;;4.57;1.50;;;12.70;99.90;;;;;;5047483;28;20028;-82
2021/10/12 12:55:43;;;;;;;2.47;1.15;;;12.70;99.90;;;;;;5049441;28;20737;-81
2021/10/12 12:58:12;;;;;;;4.25;1.35;;;12.80;99.90;;;;;;5046039;28;20521;-82